sensor_id;sensor_type;location;lat;lon;timestamp;P1;durP1;ratioP1;P2;durP2;ratioP2
39880;SDS011;25554;44.954;10.068;2023-04-03T00:02:20;9.32;;;6.93;;
39880;SDS011;25554;44.954;10.068;2023-04-03T00:07:13;9.15;;;6.45;;
39880;SDS011;25554;44.954;10.068;2023-04-03T00:09:40;8.70;;;6.40;;
39880;SDS011;25554;44.954;10.068;2023-04-03T00:14:32;8.75;;;6.40;;
39880;SDS011;25554;44.954;10.068;2023-04-03T00:19:25;8.85;;;6.35;;
39880;SDS011;25554;44.954;10.068;2023-04-03T00:24:18;9.02;;;6.53;;
39880;SDS011;25554;44.954;10.068;2023-04-03T00:29:13;8.38;;;6.53;;
39880;SDS011;25554;44.954;10.068;2023-04-03T00:31:40;9.70;;;7.53;;
39880;SDS011;25554;44.954;10.068;2023-04-03T00:36:32;10.65;;;7.07;;
39880;SDS011;25554;44.954;10.068;2023-04-03T00:38:59;11.63;;;7.05;;
39880;SDS011;25554;44.954;10.068;2023-04-03T00:41:25;8.38;;;6.75;;
39880;SDS011;25554;44.954;10.068;2023-04-03T00:43:52;11.68;;;7.18;;
39880;SDS011;25554;44.954;10.068;2023-04-03T00:46:19;12.25;;;7.07;;
39880;SDS011;25554;44.954;10.068;2023-04-03T00:48:46;10.32;;;7.35;;
39880;SDS011;25554;44.954;10.068;2023-04-03T00:51:14;10.70;;;7.70;;
39880;SDS011;25554;44.954;10.068;2023-04-03T00:53:46;11.77;;;7.93;;
39880;SDS011;25554;44.954;10.068;2023-04-03T00:56:33;9.30;;;7.60;;
39880;SDS011;25554;44.954;10.068;2023-04-03T00:59:02;10.95;;;7.70;;
39880;SDS011;25554;44.954;10.068;2023-04-03T01:01:29;9.20;;;6.93;;
39880;SDS011;25554;44.954;10.068;2023-04-03T01:03:58;13.02;;;6.72;;
39880;SDS011;25554;44.954;10.068;2023-04-03T01:06:26;9.25;;;7.20;;
39880;SDS011;25554;44.954;10.068;2023-04-03T01:09:03;9.15;;;7.20;;
39880;SDS011;25554;44.954;10.068;2023-04-03T01:11:30;7.57;;;6.22;;
39880;SDS011;25554;44.954;10.068;2023-04-03T01:13:57;11.90;;;6.40;;
39880;SDS011;25554;44.954;10.068;2023-04-03T01:16:25;8.40;;;6.55;;
39880;SDS011;25554;44.954;10.068;2023-04-03T01:18:52;10.13;;;6.55;;
39880;SDS011;25554;44.954;10.068;2023-04-03T01:26:59;7.28;;;5.80;;
39880;SDS011;25554;44.954;10.068;2023-04-03T01:29:28;7.43;;;5.95;;
39880;SDS011;25554;44.954;10.068;2023-04-03T01:31:56;6.75;;;5.00;;
39880;SDS011;25554;44.954;10.068;2023-04-03T01:34:24;8.27;;;5.85;;
39880;SDS011;25554;44.954;10.068;2023-04-03T01:36:51;7.80;;;4.93;;
39880;SDS011;25554;44.954;10.068;2023-04-03T01:39:19;10.50;;;6.47;;
39880;SDS011;25554;44.954;10.068;2023-04-03T01:41:46;8.05;;;5.75;;
39880;SDS011;25554;44.954;10.068;2023-04-03T01:44:20;7.85;;;5.40;;
39880;SDS011;25554;44.954;10.068;2023-04-03T01:46:47;6.78;;;4.88;;
39880;SDS011;25554;44.954;10.068;2023-04-03T01:49:14;5.35;;;4.40;;
39880;SDS011;25554;44.954;10.068;2023-04-03T01:51:40;8.40;;;5.32;;
39880;SDS011;25554;44.954;10.068;2023-04-03T01:54:07;8.02;;;4.88;;
39880;SDS011;25554;44.954;10.068;2023-04-03T01:56:34;6.30;;;4.30;;
39880;SDS011;25554;44.954;10.068;2023-04-03T01:59:00;7.78;;;5.00;;
39880;SDS011;25554;44.954;10.068;2023-04-03T02:01:27;6.15;;;4.38;;
39880;SDS011;25554;44.954;10.068;2023-04-03T02:03:54;6.70;;;4.40;;
39880;SDS011;25554;44.954;10.068;2023-04-03T02:06:20;5.97;;;4.47;;
39880;SDS011;25554;44.954;10.068;2023-04-03T02:08:47;8.20;;;4.07;;
39880;SDS011;25554;44.954;10.068;2023-04-03T02:13:40;4.18;;;3.30;;
39880;SDS011;25554;44.954;10.068;2023-04-03T02:16:08;5.35;;;3.70;;
39880;SDS011;25554;44.954;10.068;2023-04-03T02:18:35;8.93;;;3.80;;
39880;SDS011;25554;44.954;10.068;2023-04-03T02:21:02;7.10;;;3.65;;
39880;SDS011;25554;44.954;10.068;2023-04-03T02:23:29;5.15;;;3.63;;
39880;SDS011;25554;44.954;10.068;2023-04-03T02:26:12;4.07;;;3.40;;
39880;SDS011;25554;44.954;10.068;2023-04-03T02:28:39;4.95;;;3.35;;
39880;SDS011;25554;44.954;10.068;2023-04-03T02:31:09;5.28;;;3.40;;
39880;SDS011;25554;44.954;10.068;2023-04-03T02:33:37;5.45;;;3.60;;
39880;SDS011;25554;44.954;10.068;2023-04-03T02:36:07;3.47;;;3.15;;
39880;SDS011;25554;44.954;10.068;2023-04-03T02:38:34;4.90;;;3.42;;
39880;SDS011;25554;44.954;10.068;2023-04-03T02:41:02;3.08;;;2.72;;
39880;SDS011;25554;44.954;10.068;2023-04-03T02:43:32;4.43;;;3.25;;
39880;SDS011;25554;44.954;10.068;2023-04-03T02:45:59;4.72;;;3.45;;
39880;SDS011;25554;44.954;10.068;2023-04-03T02:48:26;5.57;;;4.22;;
39880;SDS011;25554;44.954;10.068;2023-04-03T02:50:53;4.00;;;2.90;;
39880;SDS011;25554;44.954;10.068;2023-04-03T02:53:20;5.10;;;3.60;;
39880;SDS011;25554;44.954;10.068;2023-04-03T02:55:48;5.97;;;3.63;;
39880;SDS011;25554;44.954;10.068;2023-04-03T02:58:15;4.00;;;3.47;;
39880;SDS011;25554;44.954;10.068;2023-04-03T03:00:42;3.78;;;3.33;;
39880;SDS011;25554;44.954;10.068;2023-04-03T03:03:08;4.03;;;3.63;;
39880;SDS011;25554;44.954;10.068;2023-04-03T03:05:35;5.13;;;3.53;;
39880;SDS011;25554;44.954;10.068;2023-04-03T03:08:01;5.55;;;3.95;;
39880;SDS011;25554;44.954;10.068;2023-04-03T03:10:28;5.15;;;3.50;;
39880;SDS011;25554;44.954;10.068;2023-04-03T03:12:57;6.65;;;3.08;;
39880;SDS011;25554;44.954;10.068;2023-04-03T03:15:24;24.00;;;4.82;;
39880;SDS011;25554;44.954;10.068;2023-04-03T03:17:50;10.27;;;3.38;;
39880;SDS011;25554;44.954;10.068;2023-04-03T03:20:17;12.38;;;3.85;;
39880;SDS011;25554;44.954;10.068;2023-04-03T03:22:44;3.85;;;2.97;;
39880;SDS011;25554;44.954;10.068;2023-04-03T03:27:37;3.95;;;2.88;;
39880;SDS011;25554;44.954;10.068;2023-04-03T03:30:04;3.92;;;2.90;;
39880;SDS011;25554;44.954;10.068;2023-04-03T03:32:32;5.20;;;3.03;;
39880;SDS011;25554;44.954;10.068;2023-04-03T03:34:58;6.82;;;3.80;;
39880;SDS011;25554;44.954;10.068;2023-04-03T03:37:25;4.32;;;3.28;;
39880;SDS011;25554;44.954;10.068;2023-04-03T03:39:52;41.15;;;5.40;;
39880;SDS011;25554;44.954;10.068;2023-04-03T03:42:19;12.00;;;3.78;;
39880;SDS011;25554;44.954;10.068;2023-04-03T03:44:45;3.90;;;3.05;;
39880;SDS011;25554;44.954;10.068;2023-04-03T03:47:12;3.33;;;3.00;;
39880;SDS011;25554;44.954;10.068;2023-04-03T03:49:39;13.25;;;3.42;;
39880;SDS011;25554;44.954;10.068;2023-04-03T03:52:06;9.98;;;3.50;;
39880;SDS011;25554;44.954;10.068;2023-04-03T03:54:36;7.05;;;3.40;;
39880;SDS011;25554;44.954;10.068;2023-04-03T03:57:03;4.93;;;3.17;;
39880;SDS011;25554;44.954;10.068;2023-04-03T03:59:30;4.82;;;2.95;;
39880;SDS011;25554;44.954;10.068;2023-04-03T04:01:57;4.80;;;2.88;;
39880;SDS011;25554;44.954;10.068;2023-04-03T04:04:23;8.15;;;3.30;;
39880;SDS011;25554;44.954;10.068;2023-04-03T04:06:50;8.07;;;3.40;;
39880;SDS011;25554;44.954;10.068;2023-04-03T04:09:17;5.13;;;3.75;;
39880;SDS011;25554;44.954;10.068;2023-04-03T04:11:44;6.65;;;3.50;;
39880;SDS011;25554;44.954;10.068;2023-04-03T04:14:12;5.07;;;3.80;;
39880;SDS011;25554;44.954;10.068;2023-04-03T04:16:40;3.83;;;3.20;;
39880;SDS011;25554;44.954;10.068;2023-04-03T04:19:13;4.68;;;3.47;;
39880;SDS011;25554;44.954;10.068;2023-04-03T04:21:40;6.72;;;3.33;;
39880;SDS011;25554;44.954;10.068;2023-04-03T04:24:08;4.65;;;3.05;;
39880;SDS011;25554;44.954;10.068;2023-04-03T04:26:35;6.32;;;3.42;;
39880;SDS011;25554;44.954;10.068;2023-04-03T04:29:02;3.95;;;3.13;;
39880;SDS011;25554;44.954;10.068;2023-04-03T04:31:31;4.57;;;3.35;;
39880;SDS011;25554;44.954;10.068;2023-04-03T04:33:58;5.00;;;3.63;;
39880;SDS011;25554;44.954;10.068;2023-04-03T04:36:25;3.28;;;2.72;;
39880;SDS011;25554;44.954;10.068;2023-04-03T04:38:52;7.43;;;3.30;;
39880;SDS011;25554;44.954;10.068;2023-04-03T04:41:20;5.32;;;3.47;;
39880;SDS011;25554;44.954;10.068;2023-04-03T04:43:49;3.78;;;2.95;;
39880;SDS011;25554;44.954;10.068;2023-04-03T04:46:16;4.30;;;3.47;;
39880;SDS011;25554;44.954;10.068;2023-04-03T04:48:48;7.22;;;3.50;;
39880;SDS011;25554;44.954;10.068;2023-04-03T04:51:16;6.30;;;3.70;;
39880;SDS011;25554;44.954;10.068;2023-04-03T04:53:43;8.13;;;3.92;;
39880;SDS011;25554;44.954;10.068;2023-04-03T04:56:13;5.32;;;4.00;;
39880;SDS011;25554;44.954;10.068;2023-04-03T04:58:41;5.93;;;3.75;;
39880;SDS011;25554;44.954;10.068;2023-04-03T05:01:09;12.90;;;4.47;;
39880;SDS011;25554;44.954;10.068;2023-04-03T05:03:44;6.57;;;4.25;;
39880;SDS011;25554;44.954;10.068;2023-04-03T05:06:11;12.57;;;4.45;;
39880;SDS011;25554;44.954;10.068;2023-04-03T05:08:38;6.07;;;3.75;;
39880;SDS011;25554;44.954;10.068;2023-04-03T05:11:05;6.25;;;3.58;;
39880;SDS011;25554;44.954;10.068;2023-04-03T05:13:33;5.43;;;3.88;;
39880;SDS011;25554;44.954;10.068;2023-04-03T05:15:59;5.55;;;3.42;;
39880;SDS011;25554;44.954;10.068;2023-04-03T05:18:26;8.70;;;4.57;;
39880;SDS011;25554;44.954;10.068;2023-04-03T05:20:56;9.68;;;4.10;;
39880;SDS011;25554;44.954;10.068;2023-04-03T05:23:24;8.57;;;4.25;;
39880;SDS011;25554;44.954;10.068;2023-04-03T05:25:52;9.95;;;3.90;;
39880;SDS011;25554;44.954;10.068;2023-04-03T05:28:20;7.70;;;4.18;;
39880;SDS011;25554;44.954;10.068;2023-04-03T05:30:52;13.93;;;3.90;;
39880;SDS011;25554;44.954;10.068;2023-04-03T05:33:26;12.20;;;4.47;;
39880;SDS011;25554;44.954;10.068;2023-04-03T05:36:01;11.30;;;4.78;;
39880;SDS011;25554;44.954;10.068;2023-04-03T05:38:30;11.20;;;4.22;;
39880;SDS011;25554;44.954;10.068;2023-04-03T05:40:57;10.98;;;4.35;;
39880;SDS011;25554;44.954;10.068;2023-04-03T05:43:24;6.32;;;4.10;;
39880;SDS011;25554;44.954;10.068;2023-04-03T05:45:51;10.75;;;4.05;;
39880;SDS011;25554;44.954;10.068;2023-04-03T05:48:20;17.75;;;5.03;;
39880;SDS011;25554;44.954;10.068;2023-04-03T05:50:47;7.38;;;3.65;;
39880;SDS011;25554;44.954;10.068;2023-04-03T05:53:21;10.68;;;3.80;;
39880;SDS011;25554;44.954;10.068;2023-04-03T05:55:51;10.25;;;3.90;;
39880;SDS011;25554;44.954;10.068;2023-04-03T05:58:20;9.38;;;3.53;;
39880;SDS011;25554;44.954;10.068;2023-04-03T06:00:50;6.30;;;2.97;;
39880;SDS011;25554;44.954;10.068;2023-04-03T06:03:17;7.05;;;3.42;;
39880;SDS011;25554;44.954;10.068;2023-04-03T06:08:11;4.28;;;3.10;;
39880;SDS011;25554;44.954;10.068;2023-04-03T06:10:38;5.40;;;2.95;;
39880;SDS011;25554;44.954;10.068;2023-04-03T06:13:05;5.32;;;3.05;;
39880;SDS011;25554;44.954;10.068;2023-04-03T06:15:32;3.38;;;3.08;;
39880;SDS011;25554;44.954;10.068;2023-04-03T06:18:00;4.63;;;3.35;;
39880;SDS011;25554;44.954;10.068;2023-04-03T06:20:26;7.68;;;4.20;;
39880;SDS011;25554;44.954;10.068;2023-04-03T06:22:53;12.32;;;5.25;;
39880;SDS011;25554;44.954;10.068;2023-04-03T06:25:20;11.63;;;4.72;;
39880;SDS011;25554;44.954;10.068;2023-04-03T06:30:13;6.30;;;3.40;;
39880;SDS011;25554;44.954;10.068;2023-04-03T06:32:40;8.02;;;3.53;;
39880;SDS011;25554;44.954;10.068;2023-04-03T06:35:06;4.78;;;3.15;;
39880;SDS011;25554;44.954;10.068;2023-04-03T06:37:34;4.07;;;3.03;;
39880;SDS011;25554;44.954;10.068;2023-04-03T06:42:29;6.50;;;2.97;;
39880;SDS011;25554;44.954;10.068;2023-04-03T06:45:06;3.70;;;2.72;;
39880;SDS011;25554;44.954;10.068;2023-04-03T06:47:35;3.30;;;2.40;;
39880;SDS011;25554;44.954;10.068;2023-04-03T06:52:32;4.85;;;2.95;;
39880;SDS011;25554;44.954;10.068;2023-04-03T06:54:58;4.43;;;2.83;;
39880;SDS011;25554;44.954;10.068;2023-04-03T06:57:26;7.88;;;3.13;;
39880;SDS011;25554;44.954;10.068;2023-04-03T07:02:18;5.45;;;3.40;;
39880;SDS011;25554;44.954;10.068;2023-04-03T07:04:46;4.72;;;4.00;;
39880;SDS011;25554;44.954;10.068;2023-04-03T07:07:12;6.40;;;4.28;;
39880;SDS011;25554;44.954;10.068;2023-04-03T07:12:35;6.50;;;4.45;;
39880;SDS011;25554;44.954;10.068;2023-04-03T07:15:02;5.07;;;4.38;;
39880;SDS011;25554;44.954;10.068;2023-04-03T07:17:34;7.53;;;4.40;;
39880;SDS011;25554;44.954;10.068;2023-04-03T07:20:26;8.75;;;4.65;;
39880;SDS011;25554;44.954;10.068;2023-04-03T07:22:53;8.13;;;5.13;;
39880;SDS011;25554;44.954;10.068;2023-04-03T07:25:19;7.93;;;5.65;;
39880;SDS011;25554;44.954;10.068;2023-04-03T07:30:13;19.08;;;8.13;;
39880;SDS011;25554;44.954;10.068;2023-04-03T07:32:39;10.50;;;6.57;;
39880;SDS011;25554;44.954;10.068;2023-04-03T07:35:16;9.15;;;7.15;;
39880;SDS011;25554;44.954;10.068;2023-04-03T07:38:37;14.32;;;7.70;;
39880;SDS011;25554;44.954;10.068;2023-04-03T07:41:30;11.02;;;7.15;;
39880;SDS011;25554;44.954;10.068;2023-04-03T07:44:00;11.68;;;7.18;;
39880;SDS011;25554;44.954;10.068;2023-04-03T07:46:29;12.48;;;7.13;;
39880;SDS011;25554;44.954;10.068;2023-04-03T07:49:01;10.10;;;7.43;;
39880;SDS011;25554;44.954;10.068;2023-04-03T07:51:28;9.43;;;7.00;;
39880;SDS011;25554;44.954;10.068;2023-04-03T07:53:55;13.02;;;7.63;;
39880;SDS011;25554;44.954;10.068;2023-04-03T07:58:48;12.88;;;8.02;;
39880;SDS011;25554;44.954;10.068;2023-04-03T08:01:15;11.20;;;7.97;;
39880;SDS011;25554;44.954;10.068;2023-04-03T08:03:41;10.70;;;7.65;;
39880;SDS011;25554;44.954;10.068;2023-04-03T08:06:08;10.30;;;7.93;;
39880;SDS011;25554;44.954;10.068;2023-04-03T08:08:35;10.68;;;7.80;;
39880;SDS011;25554;44.954;10.068;2023-04-03T08:13:28;8.55;;;7.15;;
39880;SDS011;25554;44.954;10.068;2023-04-03T08:15:56;9.43;;;7.47;;
39880;SDS011;25554;44.954;10.068;2023-04-03T08:18:23;8.70;;;7.30;;
39880;SDS011;25554;44.954;10.068;2023-04-03T08:20:51;12.98;;;7.70;;
39880;SDS011;25554;44.954;10.068;2023-04-03T08:23:18;10.13;;;7.20;;
39880;SDS011;25554;44.954;10.068;2023-04-03T08:25:44;8.52;;;6.72;;
39880;SDS011;25554;44.954;10.068;2023-04-03T08:28:11;10.13;;;6.55;;
39880;SDS011;25554;44.954;10.068;2023-04-03T08:30:39;7.80;;;6.25;;
39880;SDS011;25554;44.954;10.068;2023-04-03T08:33:08;16.13;;;6.95;;
39880;SDS011;25554;44.954;10.068;2023-04-03T08:35:38;10.27;;;8.50;;
39880;SDS011;25554;44.954;10.068;2023-04-03T08:38:06;7.40;;;5.82;;
39880;SDS011;25554;44.954;10.068;2023-04-03T08:40:33;10.13;;;6.03;;
39880;SDS011;25554;44.954;10.068;2023-04-03T08:48:38;7.75;;;5.63;;
39880;SDS011;25554;44.954;10.068;2023-04-03T08:51:05;8.55;;;5.40;;
39880;SDS011;25554;44.954;10.068;2023-04-03T08:53:42;8.80;;;5.33;;
39880;SDS011;25554;44.954;10.068;2023-04-03T08:56:24;8.77;;;5.85;;
39880;SDS011;25554;44.954;10.068;2023-04-03T08:58:58;6.53;;;5.28;;
39880;SDS011;25554;44.954;10.068;2023-04-03T09:01:30;12.95;;;5.50;;
39880;SDS011;25554;44.954;10.068;2023-04-03T09:04:01;7.95;;;5.93;;
39880;SDS011;25554;44.954;10.068;2023-04-03T09:06:29;7.07;;;4.93;;
39880;SDS011;25554;44.954;10.068;2023-04-03T09:09:15;7.70;;;4.40;;
39880;SDS011;25554;44.954;10.068;2023-04-03T09:16:56;5.45;;;4.13;;
39880;SDS011;25554;44.954;10.068;2023-04-03T09:21:59;7.80;;;3.83;;
39880;SDS011;25554;44.954;10.068;2023-04-03T09:24:33;7.07;;;4.78;;
39880;SDS011;25554;44.954;10.068;2023-04-03T09:29:35;8.40;;;4.53;;
39880;SDS011;25554;44.954;10.068;2023-04-03T09:32:28;7.63;;;3.92;;
39880;SDS011;25554;44.954;10.068;2023-04-03T09:35:15;4.65;;;3.70;;
39880;SDS011;25554;44.954;10.068;2023-04-03T09:37:44;7.47;;;4.50;;
39880;SDS011;25554;44.954;10.068;2023-04-03T09:42:52;4.43;;;4.00;;
39880;SDS011;25554;44.954;10.068;2023-04-03T09:45:53;4.72;;;3.42;;
39880;SDS011;25554;44.954;10.068;2023-04-03T09:48:19;5.38;;;4.10;;
39880;SDS011;25554;44.954;10.068;2023-04-03T09:55:52;4.47;;;3.00;;
39880;SDS011;25554;44.954;10.068;2023-04-03T10:00:45;4.70;;;2.78;;
39880;SDS011;25554;44.954;10.068;2023-04-03T10:03:31;4.93;;;2.85;;
39880;SDS011;25554;44.954;10.068;2023-04-03T10:05:58;4.95;;;2.92;;
39880;SDS011;25554;44.954;10.068;2023-04-03T10:08:27;3.85;;;2.63;;
39880;SDS011;25554;44.954;10.068;2023-04-03T10:13:49;4.80;;;2.63;;
39880;SDS011;25554;44.954;10.068;2023-04-03T10:16:17;3.83;;;2.60;;
39880;SDS011;25554;44.954;10.068;2023-04-03T10:18:52;3.58;;;2.22;;
39880;SDS011;25554;44.954;10.068;2023-04-03T10:27:02;2.78;;;1.90;;
39880;SDS011;25554;44.954;10.068;2023-04-03T10:34:44;5.38;;;2.70;;
39880;SDS011;25554;44.954;10.068;2023-04-03T10:37:35;2.88;;;2.00;;
39880;SDS011;25554;44.954;10.068;2023-04-03T10:40:05;3.88;;;1.98;;
39880;SDS011;25554;44.954;10.068;2023-04-03T10:52:43;2.88;;;2.60;;
39880;SDS011;25554;44.954;10.068;2023-04-03T10:55:24;3.38;;;3.08;;
39880;SDS011;25554;44.954;10.068;2023-04-03T10:57:55;4.15;;;2.55;;
39880;SDS011;25554;44.954;10.068;2023-04-03T11:00:25;2.72;;;2.53;;
39880;SDS011;25554;44.954;10.068;2023-04-03T11:03:03;3.40;;;2.53;;
39880;SDS011;25554;44.954;10.068;2023-04-03T11:05:34;6.47;;;2.60;;
39880;SDS011;25554;44.954;10.068;2023-04-03T11:08:04;4.47;;;2.20;;
39880;SDS011;25554;44.954;10.068;2023-04-03T11:10:44;3.63;;;2.33;;
39880;SDS011;25554;44.954;10.068;2023-04-03T11:13:22;2.38;;;2.03;;
39880;SDS011;25554;44.954;10.068;2023-04-03T11:15:49;2.83;;;2.35;;
39880;SDS011;25554;44.954;10.068;2023-04-03T11:18:19;3.10;;;2.70;;
39880;SDS011;25554;44.954;10.068;2023-04-03T11:20:57;4.50;;;2.63;;
39880;SDS011;25554;44.954;10.068;2023-04-03T11:23:26;3.05;;;2.45;;
39880;SDS011;25554;44.954;10.068;2023-04-03T11:25:57;8.93;;;2.60;;
39880;SDS011;25554;44.954;10.068;2023-04-03T11:28:26;4.22;;;2.97;;
39880;SDS011;25554;44.954;10.068;2023-04-03T11:35:50;4.18;;;3.08;;
39880;SDS011;25554;44.954;10.068;2023-04-03T11:38:23;5.88;;;3.33;;
39880;SDS011;25554;44.954;10.068;2023-04-03T11:40:52;4.50;;;2.75;;
39880;SDS011;25554;44.954;10.068;2023-04-03T11:43:25;3.13;;;2.25;;
39880;SDS011;25554;44.954;10.068;2023-04-03T11:46:04;4.60;;;2.63;;
39880;SDS011;25554;44.954;10.068;2023-04-03T11:53:37;5.97;;;2.15;;
39880;SDS011;25554;44.954;10.068;2023-04-03T12:01:51;3.13;;;1.48;;
39880;SDS011;25554;44.954;10.068;2023-04-03T12:04:19;1.88;;;1.35;;
39880;SDS011;25554;44.954;10.068;2023-04-03T12:11:39;5.03;;;1.27;;
39880;SDS011;25554;44.954;10.068;2023-04-03T12:14:12;4.25;;;1.10;;
39880;SDS011;25554;44.954;10.068;2023-04-03T12:26:48;3.38;;;0.90;;
39880;SDS011;25554;44.954;10.068;2023-04-03T12:29:24;3.25;;;0.88;;
39880;SDS011;25554;44.954;10.068;2023-04-03T12:34:30;6.00;;;0.95;;
39880;SDS011;25554;44.954;10.068;2023-04-03T12:37:07;1.75;;;0.88;;
39880;SDS011;25554;44.954;10.068;2023-04-03T12:42:45;2.60;;;0.95;;
39880;SDS011;25554;44.954;10.068;2023-04-03T12:45:13;1.73;;;0.60;;
39880;SDS011;25554;44.954;10.068;2023-04-03T12:47:43;2.08;;;0.98;;
39880;SDS011;25554;44.954;10.068;2023-04-03T12:50:29;5.32;;;0.88;;
39880;SDS011;25554;44.954;10.068;2023-04-03T12:53:05;2.15;;;1.23;;
39880;SDS011;25554;44.954;10.068;2023-04-03T12:55:32;6.40;;;0.90;;
39880;SDS011;25554;44.954;10.068;2023-04-03T13:00:42;2.47;;;1.25;;
39880;SDS011;25554;44.954;10.068;2023-04-03T13:03:22;1.88;;;1.00;;
39880;SDS011;25554;44.954;10.068;2023-04-03T13:05:50;2.28;;;0.98;;
39880;SDS011;25554;44.954;10.068;2023-04-03T13:08:17;1.67;;;0.98;;
39880;SDS011;25554;44.954;10.068;2023-04-03T13:10:53;3.63;;;1.27;;
39880;SDS011;25554;44.954;10.068;2023-04-03T13:13:21;2.70;;;1.15;;
39880;SDS011;25554;44.954;10.068;2023-04-03T13:15:48;6.28;;;1.15;;
39880;SDS011;25554;44.954;10.068;2023-04-03T13:18:32;6.78;;;1.35;;
39880;SDS011;25554;44.954;10.068;2023-04-03T13:21:03;1.50;;;1.05;;
39880;SDS011;25554;44.954;10.068;2023-04-03T13:23:31;1.95;;;1.08;;
39880;SDS011;25554;44.954;10.068;2023-04-03T13:25:58;1.10;;;1.00;;
39880;SDS011;25554;44.954;10.068;2023-04-03T13:28:29;2.78;;;1.02;;
39880;SDS011;25554;44.954;10.068;2023-04-03T13:33:32;4.00;;;1.10;;
39880;SDS011;25554;44.954;10.068;2023-04-03T13:36:15;1.52;;;0.98;;
39880;SDS011;25554;44.954;10.068;2023-04-03T13:38:42;1.95;;;0.88;;
39880;SDS011;25554;44.954;10.068;2023-04-03T13:43:36;2.85;;;1.33;;
39880;SDS011;25554;44.954;10.068;2023-04-03T13:48:37;1.65;;;1.10;;
39880;SDS011;25554;44.954;10.068;2023-04-03T13:51:16;5.65;;;1.42;;
39880;SDS011;25554;44.954;10.068;2023-04-03T13:53:47;4.00;;;1.50;;
39880;SDS011;25554;44.954;10.068;2023-04-03T14:01:18;2.90;;;1.77;;
39880;SDS011;25554;44.954;10.068;2023-04-03T14:03:52;6.40;;;1.92;;
39880;SDS011;25554;44.954;10.068;2023-04-03T14:06:24;2.63;;;1.50;;
39880;SDS011;25554;44.954;10.068;2023-04-03T14:08:51;2.08;;;1.75;;
39880;SDS011;25554;44.954;10.068;2023-04-03T14:11:19;5.20;;;2.15;;
39880;SDS011;25554;44.954;10.068;2023-04-03T14:13:49;5.70;;;2.92;;
39880;SDS011;25554;44.954;10.068;2023-04-03T14:16:20;2.83;;;2.63;;
39880;SDS011;25554;44.954;10.068;2023-04-03T14:18:49;5.45;;;2.67;;
39880;SDS011;25554;44.954;10.068;2023-04-03T14:21:17;5.30;;;3.25;;
39880;SDS011;25554;44.954;10.068;2023-04-03T14:23:44;5.75;;;3.00;;
39880;SDS011;25554;44.954;10.068;2023-04-03T14:26:12;3.75;;;2.92;;
39880;SDS011;25554;44.954;10.068;2023-04-03T14:28:39;7.93;;;3.10;;
39880;SDS011;25554;44.954;10.068;2023-04-03T14:31:06;5.22;;;2.85;;
39880;SDS011;25554;44.954;10.068;2023-04-03T14:36:01;6.00;;;3.15;;
39880;SDS011;25554;44.954;10.068;2023-04-03T14:38:29;3.83;;;2.50;;
39880;SDS011;25554;44.954;10.068;2023-04-03T14:40:57;4.30;;;2.53;;
39880;SDS011;25554;44.954;10.068;2023-04-03T14:43:24;3.40;;;1.92;;
39880;SDS011;25554;44.954;10.068;2023-04-03T14:45:51;2.58;;;1.77;;
39880;SDS011;25554;44.954;10.068;2023-04-03T14:48:20;3.33;;;2.20;;
39880;SDS011;25554;44.954;10.068;2023-04-03T14:50:48;5.65;;;2.50;;
39880;SDS011;25554;44.954;10.068;2023-04-03T14:53:14;5.68;;;2.63;;
39880;SDS011;25554;44.954;10.068;2023-04-03T14:55:42;4.75;;;1.80;;
39880;SDS011;25554;44.954;10.068;2023-04-03T14:58:12;2.90;;;2.10;;
39880;SDS011;25554;44.954;10.068;2023-04-03T15:00:39;4.93;;;1.90;;
39880;SDS011;25554;44.954;10.068;2023-04-03T15:05:31;2.88;;;1.65;;
39880;SDS011;25554;44.954;10.068;2023-04-03T15:10:27;7.63;;;1.80;;
39880;SDS011;25554;44.954;10.068;2023-04-03T15:12:54;7.60;;;2.60;;
39880;SDS011;25554;44.954;10.068;2023-04-03T15:15:22;5.72;;;1.80;;
39880;SDS011;25554;44.954;10.068;2023-04-03T15:17:52;6.47;;;2.78;;
39880;SDS011;25554;44.954;10.068;2023-04-03T15:20:20;4.20;;;2.03;;
39880;SDS011;25554;44.954;10.068;2023-04-03T15:22:47;2.72;;;1.23;;
39880;SDS011;25554;44.954;10.068;2023-04-03T15:25:13;3.22;;;1.60;;
39880;SDS011;25554;44.954;10.068;2023-04-03T15:27:40;3.33;;;1.48;;
39880;SDS011;25554;44.954;10.068;2023-04-03T15:30:08;9.65;;;2.28;;
39880;SDS011;25554;44.954;10.068;2023-04-03T15:32:37;6.18;;;1.88;;
39880;SDS011;25554;44.954;10.068;2023-04-03T15:37:30;7.13;;;1.88;;
39880;SDS011;25554;44.954;10.068;2023-04-03T15:42:23;5.22;;;1.10;;
39880;SDS011;25554;44.954;10.068;2023-04-03T15:47:16;2.15;;;1.13;;
39880;SDS011;25554;44.954;10.068;2023-04-03T15:52:09;5.95;;;1.10;;
39880;SDS011;25554;44.954;10.068;2023-04-03T15:57:01;13.00;;;1.63;;
39880;SDS011;25554;44.954;10.068;2023-04-03T16:01:57;4.47;;;0.95;;
39880;SDS011;25554;44.954;10.068;2023-04-03T16:04:24;1.38;;;0.80;;
39880;SDS011;25554;44.954;10.068;2023-04-03T16:09:17;1.75;;;0.75;;
39880;SDS011;25554;44.954;10.068;2023-04-03T16:11:44;2.30;;;0.60;;
39880;SDS011;25554;44.954;10.068;2023-04-03T16:16:37;4.43;;;0.80;;
39880;SDS011;25554;44.954;10.068;2023-04-03T16:19:04;0.57;;;0.57;;
39880;SDS011;25554;44.954;10.068;2023-04-03T16:21:31;4.63;;;1.10;;
39880;SDS011;25554;44.954;10.068;2023-04-03T16:23:58;1.25;;;0.68;;
39880;SDS011;25554;44.954;10.068;2023-04-03T16:26:26;2.08;;;0.88;;
39880;SDS011;25554;44.954;10.068;2023-04-03T16:28:52;4.97;;;1.10;;
39880;SDS011;25554;44.954;10.068;2023-04-03T16:31:20;3.10;;;0.82;;
39880;SDS011;25554;44.954;10.068;2023-04-03T16:33:47;2.95;;;1.10;;
39880;SDS011;25554;44.954;10.068;2023-04-03T16:38:40;6.75;;;1.13;;
39880;SDS011;25554;44.954;10.068;2023-04-03T16:43:33;3.13;;;0.88;;
39880;SDS011;25554;44.954;10.068;2023-04-03T16:46:01;1.58;;;1.00;;
39880;SDS011;25554;44.954;10.068;2023-04-03T16:48:28;1.55;;;0.93;;
39880;SDS011;25554;44.954;10.068;2023-04-03T16:50:54;2.63;;;1.38;;
39880;SDS011;25554;44.954;10.068;2023-04-03T16:55:47;3.10;;;1.00;;
39880;SDS011;25554;44.954;10.068;2023-04-03T16:58:14;1.77;;;0.60;;
39880;SDS011;25554;44.954;10.068;2023-04-03T17:03:07;1.50;;;1.05;;
39880;SDS011;25554;44.954;10.068;2023-04-03T17:05:34;4.75;;;1.05;;
39880;SDS011;25554;44.954;10.068;2023-04-03T17:08:00;1.70;;;1.30;;
39880;SDS011;25554;44.954;10.068;2023-04-03T17:10:27;2.38;;;1.30;;
39880;SDS011;25554;44.954;10.068;2023-04-03T17:12:54;3.70;;;1.65;;
39880;SDS011;25554;44.954;10.068;2023-04-03T17:17:47;6.53;;;2.35;;
39880;SDS011;25554;44.954;10.068;2023-04-03T17:20:14;4.20;;;1.40;;
39880;SDS011;25554;44.954;10.068;2023-04-03T17:22:41;3.05;;;1.23;;
39880;SDS011;25554;44.954;10.068;2023-04-03T17:27:35;5.95;;;1.00;;
39880;SDS011;25554;44.954;10.068;2023-04-03T17:32:28;3.35;;;1.20;;
39880;SDS011;25554;44.954;10.068;2023-04-03T17:34:54;4.75;;;1.25;;
39880;SDS011;25554;44.954;10.068;2023-04-03T17:37:21;3.88;;;1.08;;
39880;SDS011;25554;44.954;10.068;2023-04-03T17:42:14;2.60;;;0.90;;
39880;SDS011;25554;44.954;10.068;2023-04-03T17:47:07;3.78;;;1.10;;
39880;SDS011;25554;44.954;10.068;2023-04-03T17:49:33;3.88;;;2.38;;
39880;SDS011;25554;44.954;10.068;2023-04-03T17:54:26;2.70;;;1.00;;
39880;SDS011;25554;44.954;10.068;2023-04-03T17:59:19;5.40;;;0.90;;
39880;SDS011;25554;44.954;10.068;2023-04-03T18:04:13;2.10;;;0.85;;
39880;SDS011;25554;44.954;10.068;2023-04-03T18:11:32;3.08;;;1.20;;
39880;SDS011;25554;44.954;10.068;2023-04-03T18:13:59;6.95;;;1.17;;
39880;SDS011;25554;44.954;10.068;2023-04-03T18:16:28;1.98;;;0.90;;